Terminal Aerodrome Forecast
Issued by NWS Pittsburgh, PA

Home | Current Version | Previous Version | Text Only | Print | Product List | Glossary On
Versions: 1 2 3 4 5 6 7 8 9 10 11 12 13 14 15 16 17 18 19 20 21 22 23 24 25 26 27
000
FTUS41 KPBZ 250200 AAA
TAFPIT
TAF AMD
KPIT 250248Z 2503/2606 VRB04KT P6SM BKN150
     FM251600 15010G18KT 4SM -SHRA OVC020
     FM252200 28012G22KT P6SM BKN020
     FM260300 28008KT P6SM SCT040=

USA.gov is the U.S. government's official web portal to all federal, state and local government web resources and services.